Hauptseite
METAR-TAF:

METAR-TAF

Flughäfen :

Flughafen Piešťany

Piešťany, Slowakei

Breite: 48-37-30N, Länge: 017-49-43E, Höhe: 163 m

Beobachtung

Neuester Wetterbericht von vor 23 Minuten, um 05:00 UTC
Wind 7 kt aus Nord/Nordost
Temperatur 7°C
Luftfeuchtigkeit 76%
Luftdruck 1030 hPa
Sichtweite 10 km oder mehr
keine Wolken unter 1500 m und keine Kumulonimbus oder Gewitterwolken

METAR: LZPP 190500Z 02007KT CAVOK 07/03 Q1030

Zeit: 07:23 (05:23 UTC)

Prognose

Neuester Wetterbericht von vor 12 Stunden und 23 Minuten, um 17:00 UTC
Gültige Prognose vom 18 um 18 UTC bis 19 um 03 UTC
Wind 4 kt aus Südwest
Sichtweite 10 km oder mehr
keine Wolken unter 1500 m und keine Kumulonimbus oder Gewitterwolken
Übergehend zu
vom 18 um 18 UTC bis 18 um 20 UTC
Wind 2 kt aus unterschiedlichen Richtungen

TAF: LZPP 181700Z 1818/1903 23004KT CAVOK BECMG 1818/1820 VRB02KT

Wetterbeobachtungen und Prognosen von mehr als 4000 Flughäfen (METAR und TAF Bericht).

Die verfügbaren Stationen werden durch gelbe und rote Markierungen auf der Karte dargestellt.

Führen Sie die Maus auf sie, um den Namen der Station zu sehen.

Darauf klicken, um die Beobachtung von Wetterbeobachtungen und Prognosen zu sehen.

Um die Karte zu ändern : klicken Sie auf den grünen Tasten mit einem schwarzen Kreuz Zum Vergrößern, auf den grünen Button mit einem Gedankenstrich zu verkleinern, oder auf die grünen Pfeile für benachbarte Karten.


METAR-TAF: